createdAt,value
2022-09-20T00:01:08.040Z,10.20
2022-09-20T00:03:36.779Z,10.23
2022-09-20T00:06:07.531Z,10.18
2022-09-20T00:08:36.313Z,10.19
2022-09-20T00:11:06.692Z,10.18
2022-09-20T00:13:35.285Z,10.05
2022-09-20T00:16:06.268Z,10.05
2022-09-20T00:18:34.357Z,10.11
2022-09-20T00:21:02.359Z,10.14
2022-09-20T00:23:32.222Z,10.01
2022-09-20T00:26:01.857Z,10.08
2022-09-20T00:28:30.410Z,9.98
2022-09-20T00:30:58.501Z,10.00
2022-09-20T00:33:47.375Z,10.00
2022-09-20T00:36:14.493Z,9.97
2022-09-20T00:38:44.003Z,9.80
2022-09-20T00:41:12.308Z,9.87
2022-09-20T00:43:42.015Z,9.88
2022-09-20T00:46:20.921Z,9.68
2022-09-20T00:48:49.578Z,9.84
2022-09-20T00:51:19.467Z,9.80
2022-09-20T00:53:50.549Z,9.91
2022-09-20T00:56:22.330Z,9.87
2022-09-20T00:58:53.389Z,9.98
2022-09-20T01:01:21.721Z,10.02
2022-09-20T01:03:50.010Z,10.02
2022-09-20T01:06:18.290Z,9.88
2022-09-20T01:08:50.050Z,9.67
2022-09-20T01:11:18.231Z,9.69
2022-09-20T01:13:46.282Z,9.78
2022-09-20T01:16:15.588Z,9.76
2022-09-20T01:18:44.996Z,9.68
2022-09-20T01:21:13.409Z,9.58
2022-09-20T01:23:50.880Z,9.55
2022-09-20T01:26:34.473Z,9.59
2022-09-20T01:29:10.991Z,9.62
2022-09-20T01:31:44.312Z,9.67
2022-09-20T01:34:15.322Z,9.65
2022-09-20T01:36:46.278Z,9.64
2022-09-20T01:39:22.219Z,9.69
2022-09-20T01:41:54.343Z,9.71
2022-09-20T01:44:28.356Z,9.75
2022-09-20T01:47:03.255Z,9.87
2022-09-20T01:49:36.468Z,9.90
2022-09-20T01:52:31.183Z,9.86
2022-09-20T01:55:44.958Z,9.89
2022-09-20T01:59:19.803Z,9.99
2022-09-20T02:02:08.403Z,10.04
2022-09-20T02:05:06.266Z,9.91
2022-09-20T02:07:58.975Z,9.97
2022-09-20T02:10:39.582Z,9.93
2022-09-20T02:13:12.126Z,9.76
2022-09-20T02:16:11.273Z,9.79
2022-09-20T02:18:51.128Z,9.88
2022-09-20T02:21:25.783Z,9.67
2022-09-20T02:24:01.834Z,9.82
2022-09-20T02:26:37.977Z,9.79
2022-09-20T02:29:14.176Z,9.66
2022-09-20T02:31:53.814Z,9.62
2022-09-20T02:35:01.055Z,9.56
2022-09-20T02:37:54.693Z,9.62
2022-09-20T02:40:32.341Z,9.65
2022-09-20T02:43:05.987Z,9.51
2022-09-20T02:45:40.430Z,9.63
2022-09-20T02:48:08.642Z,9.68
2022-09-20T02:50:42.276Z,9.73
2022-09-20T02:53:24.259Z,9.83
2022-09-20T02:56:00.702Z,9.89
2022-09-20T02:58:38.217Z,9.94
2022-09-20T03:01:14.142Z,10.02
2022-09-20T03:03:48.914Z,9.98
2022-09-20T03:06:23.319Z,9.94
2022-09-20T03:08:57.939Z,9.84
2022-09-20T03:11:31.928Z,9.75
2022-09-20T03:14:16.121Z,9.89
2022-09-20T03:17:02.368Z,9.79
2022-09-20T03:19:52.797Z,9.87
2022-09-20T03:22:31.021Z,9.86
2022-09-20T03:25:29.080Z,9.88
2022-09-20T03:28:08.076Z,9.84
2022-09-20T03:30:47.760Z,9.84
2022-09-20T03:33:22.180Z,9.89
2022-09-20T03:36:06.038Z,9.96
2022-09-20T03:38:49.630Z,9.89
2022-09-20T03:41:30.270Z,10.00
2022-09-20T03:44:12.012Z,10.05
2022-09-20T03:46:45.562Z,10.10
2022-09-20T03:49:54.788Z,10.06
2022-09-20T03:52:40.727Z,10.02
2022-09-20T03:55:33.178Z,9.99
2022-09-20T03:58:10.543Z,10.00
2022-09-20T04:00:53.016Z,9.94
2022-09-20T04:03:32.147Z,9.83
2022-09-20T04:06:14.638Z,9.74
2022-09-20T04:08:57.589Z,9.84
2022-09-20T04:11:30.480Z,9.71
2022-09-20T04:14:11.191Z,9.68
2022-09-20T04:16:44.655Z,9.76
2022-09-20T04:19:17.721Z,9.59
2022-09-20T04:21:51.076Z,9.73
2022-09-20T04:24:24.032Z,9.76
2022-09-20T04:26:55.276Z,9.73
2022-09-20T04:29:35.156Z,9.75
2022-09-20T04:32:13.159Z,9.75
2022-09-20T04:35:01.859Z,9.72
2022-09-20T04:37:33.080Z,9.53
2022-09-20T04:40:10.353Z,9.70
2022-09-20T04:43:18.472Z,9.64
2022-09-20T04:46:15.704Z,9.71
2022-09-20T04:49:15.452Z,9.66
2022-09-20T04:52:04.063Z,9.69
2022-09-20T04:55:06.071Z,9.71
2022-09-20T04:57:53.924Z,9.74
2022-09-20T05:00:24.096Z,9.63
2022-09-20T05:03:27.771Z,9.52
2022-09-20T05:06:15.666Z,9.69
2022-09-20T05:09:03.019Z,9.68
2022-09-20T05:11:51.385Z,9.70
2022-09-20T05:14:44.043Z,9.78
2022-09-20T05:17:26.510Z,9.63
2022-09-20T05:20:12.003Z,9.80
2022-09-20T05:23:09.616Z,9.86
2022-09-20T05:25:45.047Z,9.93
2022-09-20T05:28:19.256Z,9.91
2022-09-20T05:30:50.383Z,10.01
2022-09-20T05:33:23.818Z,9.97
2022-09-20T05:36:03.159Z,9.97
2022-09-20T05:38:37.897Z,10.03
2022-09-20T05:41:14.104Z,9.98
2022-09-20T05:43:51.416Z,10.00
2022-09-20T05:46:26.957Z,10.02
2022-09-20T05:49:21.865Z,9.98
2022-09-20T05:52:06.651Z,9.95
2022-09-20T05:54:44.224Z,10.02
2022-09-20T05:57:20.511Z,9.98
2022-09-20T05:59:58.089Z,10.07
2022-09-20T06:02:36.265Z,10.14
2022-09-20T06:05:28.849Z,10.06
2022-09-20T06:08:20.141Z,10.18
2022-09-20T06:11:00.866Z,10.16
2022-09-20T06:14:03.750Z,10.21
2022-09-20T06:16:41.398Z,10.24
2022-09-20T06:19:17.458Z,10.27
2022-09-20T06:21:53.006Z,10.19
2022-09-20T06:24:31.655Z,10.30
2022-09-20T06:27:04.036Z,10.18
2022-09-20T06:29:34.737Z,10.20
2022-09-20T06:32:03.116Z,10.26
2022-09-20T06:34:31.492Z,10.24
2022-09-20T06:37:28.583Z,10.32
2022-09-20T06:40:19.448Z,10.25
2022-09-20T06:42:47.728Z,10.34
2022-09-20T06:45:15.682Z,10.33
2022-09-20T06:47:43.680Z,10.34
2022-09-20T06:50:16.895Z,10.26
2022-09-20T06:52:46.723Z,10.27
2022-09-20T06:55:20.104Z,10.28
2022-09-20T06:57:48.135Z,10.34
2022-09-20T07:00:17.138Z,10.30
2022-09-20T07:02:45.368Z,10.28
2022-09-20T07:05:15.323Z,10.32
2022-09-20T07:07:44.031Z,10.34
2022-09-20T07:10:12.471Z,10.31
2022-09-20T07:12:42.231Z,10.39
2022-09-20T07:15:11.226Z,10.31
2022-09-20T07:17:39.215Z,10.37
2022-09-20T07:20:08.139Z,10.42
2022-09-20T07:22:36.171Z,10.49
2022-09-20T07:25:04.274Z,10.57
2022-09-20T07:27:32.265Z,10.64
2022-09-20T07:30:02.357Z,10.52
2022-09-20T07:32:31.686Z,10.53
2022-09-20T07:35:01.924Z,10.57
2022-09-20T07:37:32.783Z,10.65
2022-09-20T07:40:03.642Z,10.80
2022-09-20T07:42:31.750Z,10.79
2022-09-20T07:45:02.891Z,10.77
2022-09-20T07:47:33.523Z,10.83
2022-09-20T07:50:01.531Z,10.93
2022-09-20T07:52:29.544Z,11.01
2022-09-20T07:54:57.572Z,11.04
2022-09-20T07:57:25.577Z,10.97
2022-09-20T07:59:53.578Z,11.04
2022-09-20T08:02:22.926Z,11.13
2022-09-20T08:04:50.931Z,11.29
2022-09-20T08:07:18.998Z,11.33
2022-09-20T08:09:47.974Z,11.32
2022-09-20T08:15:06.526Z,11.37
2022-09-20T08:17:40.339Z,11.22
2022-09-20T08:20:09.732Z,11.25
2022-09-20T08:22:39.322Z,11.34
2022-09-20T08:25:08.370Z,11.39
2022-09-20T08:27:37.231Z,11.45
2022-09-20T08:30:06.387Z,11.49
2022-09-20T08:32:34.383Z,11.61
2022-09-20T08:35:04.629Z,11.70
2022-09-20T08:37:32.615Z,11.58
2022-09-20T08:40:00.738Z,11.65
2022-09-20T08:42:36.633Z,11.51
2022-09-20T08:45:22.305Z,11.66
2022-09-20T08:47:57.803Z,11.62
2022-09-20T08:50:28.803Z,11.59
2022-09-20T08:53:01.257Z,11.54
2022-09-20T08:55:36.374Z,11.37
2022-09-20T08:58:08.436Z,11.44
2022-09-20T09:00:38.518Z,11.46
2022-09-20T09:03:08.303Z,11.53
2022-09-20T09:05:40.431Z,11.65
2022-09-20T09:08:16.228Z,11.75
2022-09-20T09:10:46.802Z,11.79
2022-09-20T09:13:21.948Z,11.81
2022-09-20T09:15:54.426Z,11.71
2022-09-20T09:18:22.416Z,11.66
2022-09-20T09:20:51.822Z,11.80
2022-09-20T09:23:26.388Z,11.89
2022-09-20T09:25:55.101Z,11.93
2022-09-20T09:28:25.651Z,11.97
2022-09-20T09:30:54.244Z,12.05
2022-09-20T09:33:28.121Z,12.06
2022-09-20T09:36:00.278Z,12.16
2022-09-20T09:38:30.211Z,12.33
2022-09-20T09:40:59.323Z,12.45
2022-09-20T09:43:30.091Z,12.57
2022-09-20T09:46:18.247Z,12.74
2022-09-20T09:48:50.002Z,12.83
2022-09-20T09:51:23.154Z,12.83
2022-09-20T09:54:19.864Z,12.68
2022-09-20T09:56:57.410Z,12.62
2022-09-20T09:59:34.483Z,12.62
2022-09-20T10:02:13.006Z,12.66
2022-09-20T10:04:45.770Z,12.63
2022-09-20T10:07:21.413Z,12.57
2022-09-20T10:10:00.148Z,12.73
2022-09-20T10:12:39.453Z,12.66
2022-09-20T10:15:25.289Z,12.69
2022-09-20T10:18:03.266Z,12.72
2022-09-20T10:20:45.026Z,12.72
2022-09-20T10:23:45.446Z,12.84
2022-09-20T10:26:24.256Z,12.95
2022-09-20T10:28:58.785Z,13.04
2022-09-20T10:31:43.936Z,13.01
2022-09-20T10:34:40.765Z,13.01
2022-09-20T10:37:14.665Z,13.06
2022-09-20T10:39:46.141Z,12.98
2022-09-20T10:42:40.634Z,12.87
2022-09-20T10:45:29.529Z,12.92
2022-09-20T10:48:07.258Z,12.98
2022-09-20T10:50:43.654Z,13.06
2022-09-20T10:53:21.359Z,13.15
2022-09-20T10:55:54.469Z,13.22
2022-09-20T10:58:54.240Z,13.27
2022-09-20T11:01:25.084Z,13.37
2022-09-20T11:04:24.273Z,13.37
2022-09-20T11:06:57.305Z,13.28
2022-09-20T11:09:28.652Z,13.25
2022-09-20T11:12:04.259Z,13.42
2022-09-20T11:14:36.068Z,13.44
2022-09-20T11:17:08.503Z,13.49
2022-09-20T11:19:42.355Z,13.62
2022-09-20T11:22:13.350Z,13.64
2022-09-20T11:24:44.982Z,13.74
2022-09-20T11:27:18.551Z,13.65
2022-09-20T11:29:51.143Z,13.61
2022-09-20T11:32:23.565Z,13.54
2022-09-20T11:34:54.560Z,13.62
2022-09-20T11:37:24.098Z,13.43
2022-09-20T11:39:55.503Z,13.43
2022-09-20T11:42:27.416Z,13.52
2022-09-20T11:44:55.775Z,13.65
2022-09-20T11:47:49.753Z,13.68
2022-09-20T11:50:41.466Z,13.79
2022-09-20T11:53:18.524Z,13.76
2022-09-20T11:55:50.452Z,13.86
2022-09-20T11:58:22.485Z,13.83
2022-09-20T12:00:54.351Z,13.95
2022-09-20T12:03:27.337Z,13.89
2022-09-20T12:05:59.498Z,14.00
2022-09-20T12:08:30.647Z,14.08
2022-09-20T12:11:01.841Z,14.19
2022-09-20T12:13:32.935Z,14.21
2022-09-20T12:16:03.527Z,14.29
2022-09-20T12:18:50.296Z,14.39
2022-09-20T12:21:20.803Z,14.54
2022-09-20T12:24:19.614Z,14.58
2022-09-20T12:26:49.062Z,14.68
2022-09-20T12:29:57.378Z,14.71
2022-09-20T12:32:48.282Z,14.77
2022-09-20T12:35:59.348Z,14.84
2022-09-20T12:38:37.589Z,14.98
2022-09-20T12:41:14.524Z,15.04
2022-09-20T12:43:53.691Z,15.11
2022-09-20T12:46:29.205Z,15.14
2022-09-20T12:49:47.929Z,15.23
2022-09-20T12:52:53.872Z,15.05
2022-09-20T12:55:32.078Z,14.80
2022-09-20T12:58:03.048Z,14.82
2022-09-20T13:00:38.077Z,14.72
2022-09-20T13:03:24.025Z,14.48
2022-09-20T13:06:25.241Z,14.28
2022-09-20T13:08:57.965Z,14.24
2022-09-20T13:11:30.506Z,14.20
2022-09-20T13:14:00.136Z,14.21
2022-09-20T13:16:33.224Z,14.22
2022-09-20T13:19:05.310Z,14.37
2022-09-20T13:21:35.454Z,14.45
2022-09-20T13:24:05.088Z,14.57
2022-09-20T13:26:37.089Z,14.63
2022-09-20T13:29:05.611Z,14.73
2022-09-20T13:31:35.860Z,14.75
2022-09-20T13:34:22.086Z,14.77
2022-09-20T13:36:56.226Z,14.43
2022-09-20T13:39:32.615Z,14.27
2022-09-20T13:42:03.282Z,14.32
2022-09-20T13:44:34.435Z,14.35
2022-09-20T13:47:02.560Z,14.32
2022-09-20T13:49:33.201Z,14.26
2022-09-20T13:52:16.880Z,14.36
2022-09-20T13:54:46.187Z,14.34
2022-09-20T13:57:18.177Z,14.28
2022-09-20T13:59:47.237Z,13.90
2022-09-20T14:02:22.618Z,13.96
2022-09-20T14:04:53.087Z,14.08
2022-09-20T14:07:21.306Z,14.25
2022-09-20T14:09:51.710Z,14.11
2022-09-20T14:12:20.338Z,14.18
2022-09-20T14:14:48.699Z,14.36
2022-09-20T14:17:19.251Z,14.28
2022-09-20T14:19:50.012Z,14.34
2022-09-20T14:22:20.851Z,14.39
2022-09-20T14:25:01.376Z,14.50
2022-09-20T14:27:31.275Z,14.51
2022-09-20T14:29:59.795Z,14.60
2022-09-20T14:32:43.029Z,14.52
2022-09-20T14:35:16.784Z,14.43
2022-09-20T14:37:46.413Z,14.59
2022-09-20T14:40:23.080Z,14.33
2022-09-20T14:42:56.275Z,13.78
2022-09-20T14:45:27.748Z,13.79
2022-09-20T14:48:10.122Z,13.72
2022-09-20T14:50:39.851Z,13.58
2022-09-20T14:53:23.659Z,13.65
2022-09-20T14:56:01.612Z,13.52
2022-09-20T14:58:29.931Z,13.48
2022-09-20T15:01:01.658Z,13.33
2022-09-20T15:03:32.474Z,13.48
2022-09-20T15:06:00.565Z,13.65
2022-09-20T15:08:28.845Z,13.74
2022-09-20T15:10:56.894Z,13.88
2022-09-20T15:13:26.396Z,13.92
2022-09-20T15:15:55.191Z,13.83
2022-09-20T15:18:26.293Z,13.76
2022-09-20T15:20:55.315Z,13.69
2022-09-20T15:23:23.445Z,13.71
2022-09-20T15:25:52.857Z,13.90
2022-09-20T15:28:21.354Z,14.05
2022-09-20T15:30:52.103Z,14.00
2022-09-20T15:33:21.064Z,13.92
2022-09-20T15:35:49.529Z,13.91
2022-09-20T15:38:18.730Z,13.83
2022-09-20T15:40:48.241Z,14.01
2022-09-20T15:43:18.063Z,14.05
2022-09-20T15:45:51.495Z,13.98
2022-09-20T15:48:21.545Z,13.98
2022-09-20T15:51:11.350Z,13.86
2022-09-20T15:53:45.069Z,13.83
2022-09-20T15:56:17.527Z,13.71
2022-09-20T15:58:47.227Z,13.75
2022-09-20T16:01:17.740Z,13.63
2022-09-20T16:03:47.101Z,13.41
2022-09-20T16:06:15.822Z,13.14
2022-09-20T16:08:44.297Z,12.93
2022-09-20T16:11:18.207Z,12.79
2022-09-20T16:13:48.615Z,12.75
2022-09-20T16:16:18.050Z,12.64
2022-09-20T16:19:03.806Z,12.66
2022-09-20T16:21:32.033Z,12.68
2022-09-20T16:24:00.408Z,12.79
2022-09-20T16:26:31.652Z,12.61
2022-09-20T16:28:59.866Z,12.78
2022-09-20T16:31:39.941Z,12.66
2022-09-20T16:34:12.799Z,12.78
2022-09-20T16:36:43.298Z,12.78
2022-09-20T16:39:12.487Z,12.62
2022-09-20T16:41:40.662Z,12.72
2022-09-20T16:44:08.838Z,12.70
2022-09-20T16:46:38.236Z,12.82
2022-09-20T16:49:09.412Z,12.75
2022-09-20T16:51:39.138Z,12.78
2022-09-20T16:54:11.697Z,12.89
2022-09-20T16:56:41.394Z,12.88
2022-09-20T16:59:10.618Z,12.94
2022-09-20T17:01:40.632Z,12.99
2022-09-20T17:04:09.504Z,13.02
2022-09-20T17:06:39.385Z,13.02
2022-09-20T17:09:08.042Z,12.99
2022-09-20T17:11:38.132Z,13.00
2022-09-20T17:14:06.742Z,13.03
2022-09-20T17:16:36.320Z,13.04
2022-09-20T17:19:08.756Z,13.05
2022-09-20T17:21:38.745Z,13.01
2022-09-20T17:24:07.975Z,12.98
2022-09-20T17:26:38.289Z,12.97
2022-09-20T17:29:08.087Z,12.96
2022-09-20T17:31:37.830Z,12.95
2022-09-20T17:34:09.912Z,12.94
2022-09-20T17:36:40.231Z,12.89
2022-09-20T17:39:10.898Z,12.87
2022-09-20T17:41:39.265Z,12.80
2022-09-20T17:44:09.787Z,12.72
2022-09-20T17:46:38.802Z,12.67
2022-09-20T17:49:09.490Z,12.62
2022-09-20T17:51:39.699Z,12.59
2022-09-20T17:54:08.486Z,12.58
2022-09-20T17:56:37.126Z,12.55
2022-09-20T17:59:06.491Z,12.42
2022-09-20T18:01:36.161Z,12.41
2022-09-20T18:04:05.841Z,12.36
2022-09-20T18:06:36.707Z,12.34
2022-09-20T18:09:06.832Z,12.26
2022-09-20T18:11:36.718Z,12.07
2022-09-20T18:14:06.533Z,12.09
2022-09-20T18:16:35.176Z,12.02
2022-09-20T18:19:03.344Z,11.97
2022-09-20T18:21:33.461Z,11.97
2022-09-20T18:24:03.639Z,11.95
2022-09-20T18:26:32.828Z,11.94
2022-09-20T18:29:02.838Z,11.90
2022-09-20T18:31:32.373Z,11.86
2022-09-20T18:34:01.686Z,11.77
2022-09-20T18:36:30.484Z,11.70
2022-09-20T18:38:59.519Z,11.72
2022-09-20T18:41:31.370Z,11.71
2022-09-20T18:43:59.936Z,11.66
2022-09-20T18:46:30.850Z,11.65
2022-09-20T18:49:02.101Z,11.54
2022-09-20T18:51:30.310Z,11.48
2022-09-20T18:53:58.897Z,11.48
2022-09-20T18:56:29.801Z,11.40
2022-09-20T18:58:59.378Z,11.32
2022-09-20T19:02:03.231Z,11.24
2022-09-20T19:04:53.226Z,11.17
2022-09-20T19:07:26.809Z,11.10
2022-09-20T19:09:58.718Z,11.01
2022-09-20T19:12:33.651Z,10.97
2022-09-20T19:15:13.124Z,11.03
2022-09-20T19:17:50.600Z,11.10
2022-09-20T19:20:23.153Z,10.99
2022-09-20T19:22:59.005Z,10.97
2022-09-20T19:25:30.678Z,10.95
2022-09-20T19:28:00.395Z,11.01
2022-09-20T19:30:29.178Z,11.01
2022-09-20T19:32:57.799Z,11.02
2022-09-20T19:35:31.335Z,10.99
2022-09-20T19:38:05.276Z,10.99
2022-09-20T19:40:41.937Z,10.96
2022-09-20T19:43:23.819Z,10.92
2022-09-20T19:45:57.993Z,10.93
2022-09-20T19:48:33.938Z,10.93
2022-09-20T19:51:04.431Z,10.92
2022-09-20T19:53:33.196Z,10.91
2022-09-20T19:56:04.898Z,10.88
2022-09-20T19:58:35.118Z,10.86
2022-09-20T20:01:04.659Z,10.89
2022-09-20T20:03:33.337Z,10.84
2022-09-20T20:06:07.875Z,10.80
2022-09-20T20:08:39.759Z,10.84
2022-09-20T20:11:13.688Z,10.85
2022-09-20T20:14:07.427Z,10.79
2022-09-20T20:16:44.344Z,10.76
2022-09-20T20:19:33.935Z,10.68
2022-09-20T20:22:08.491Z,10.71
2022-09-20T20:24:38.814Z,10.69
2022-09-20T20:27:06.810Z,10.70
2022-09-20T20:29:36.155Z,10.75
2022-09-20T20:32:04.221Z,10.77
2022-09-20T20:34:32.794Z,10.74
2022-09-20T20:37:01.427Z,10.71
2022-09-20T20:39:31.606Z,10.69
2022-09-20T20:42:02.270Z,10.69
2022-09-20T20:44:31.034Z,10.70
2022-09-20T20:47:00.354Z,10.66
2022-09-20T20:49:28.354Z,10.67
2022-09-20T20:51:57.501Z,10.66
2022-09-20T20:54:27.191Z,10.70
2022-09-20T20:56:55.155Z,10.68
2022-09-20T20:59:24.637Z,10.60
2022-09-20T21:01:52.755Z,10.58
2022-09-20T21:04:23.904Z,10.57
2022-09-20T21:06:51.976Z,10.55
2022-09-20T21:09:20.036Z,10.50
2022-09-20T21:11:48.492Z,10.51
2022-09-20T21:14:16.550Z,10.46
2022-09-20T21:16:45.084Z,10.38
2022-09-20T21:19:15.027Z,10.24
2022-09-20T21:21:46.066Z,10.14
2022-09-20T21:24:17.275Z,10.11
2022-09-20T21:26:46.081Z,10.14
2022-09-20T21:29:15.708Z,10.14
2022-09-20T21:31:45.201Z,10.11
2022-09-20T21:34:15.433Z,10.15
2022-09-20T21:36:45.060Z,10.18
2022-09-20T21:39:13.440Z,10.05
2022-09-20T21:41:42.201Z,9.98
2022-09-20T21:44:12.134Z,9.91
2022-09-20T21:46:41.634Z,9.80
2022-09-20T21:49:10.928Z,9.82
2022-09-20T21:51:39.559Z,9.88
2022-09-20T21:54:09.133Z,9.89
2022-09-20T21:56:38.219Z,9.82
2022-09-20T21:59:07.731Z,9.78
2022-09-20T22:01:37.341Z,9.73
2022-09-20T22:04:07.028Z,9.72
2022-09-20T22:06:36.375Z,9.68
2022-09-20T22:09:06.079Z,9.65
2022-09-20T22:11:38.869Z,9.59
2022-09-20T22:14:07.463Z,9.53
2022-09-20T22:16:36.842Z,9.50
2022-09-20T22:19:05.844Z,9.45
2022-09-20T22:21:36.715Z,9.37
2022-09-20T22:24:05.940Z,9.41
2022-09-20T22:26:37.115Z,9.38
2022-09-20T22:29:06.430Z,9.39
2022-09-20T22:31:36.278Z,9.37
2022-09-20T22:34:06.089Z,9.34
2022-09-20T22:36:35.427Z,9.31
2022-09-20T22:39:04.575Z,9.16
2022-09-20T22:41:32.537Z,9.12
2022-09-20T22:44:02.140Z,9.14
2022-09-20T22:46:31.406Z,9.14
2022-09-20T22:48:59.525Z,9.13
2022-09-20T22:51:29.346Z,8.99
2022-09-20T22:53:57.498Z,8.91
2022-09-20T22:56:29.479Z,8.87
2022-09-20T22:58:59.991Z,8.82
2022-09-20T23:01:31.422Z,8.92
2022-09-20T23:04:00.943Z,8.93
2022-09-20T23:06:30.797Z,8.89
2022-09-20T23:09:00.674Z,8.79
2022-09-20T23:11:29.488Z,8.74
2022-09-20T23:13:59.354Z,8.74
2022-09-20T23:16:30.931Z,8.71
2022-09-20T23:19:00.373Z,8.76
2022-09-20T23:21:28.958Z,8.77
2022-09-20T23:23:58.635Z,8.76
2022-09-20T23:26:27.705Z,8.72
2022-09-20T23:28:58.224Z,8.64
2022-09-20T23:31:26.750Z,8.57
2022-09-20T23:33:57.755Z,8.55
2022-09-20T23:36:27.447Z,8.51
2022-09-20T23:38:55.899Z,8.52
2022-09-20T23:41:26.406Z,8.46
2022-09-20T23:43:54.882Z,8.41
2022-09-20T23:46:24.393Z,8.37
2022-09-20T23:48:52.566Z,8.43
2022-09-20T23:51:23.875Z,8.48
2022-09-20T23:53:52.863Z,8.42
2022-09-20T23:56:21.310Z,8.34
2022-09-20T23:58:50.189Z,8.32
